Time;durP1;ratioP1;P1;durP2;ratioP2;P2;SDS_P1;SDS_P2;PMS_P1;PMS_P2;Temp;Humidity;BMP_temperature;BMP_pressure;BME280_temperature;BME280_humidity;BME280_pressure;Samples;Min_cycle;Max_cycle;Signal;HPM_P1;HPM_P2
2023/06/14 00:02:10;;;;;;;8.23;5.18;;;;;;;;;;5135500;27;20039;-80
2023/06/14 00:04:38;;;;;;;6.18;5.53;;;;;;;;;;5131467;27;20095;-79
2023/06/14 00:07:08;;;;;;;7.72;5.00;;;;;;;;;;5112891;27;20035;-80
2023/06/14 00:09:35;;;;;;;8.52;5.30;;;;;;;;;;5130743;27;20188;-79
2023/06/14 00:12:01;;;;;;;13.63;6.00;;;;;;;;;;5130987;27;20465;-78
2023/06/14 00:14:28;;;;;;;13.50;5.97;;;;;;;;;;5131291;27;20038;-80
2023/06/14 00:16:58;;;;;;;15.98;7.30;;;;;;;;;;5112810;28;20039;-81
2023/06/14 00:19:26;;;;;;;26.05;9.75;;;;;;;;;;5131400;27;20031;-80
2023/06/14 00:21:52;;;;;;;26.98;10.73;;;;;;;;;;5112953;28;20038;-78
2023/06/14 00:24:19;;;;;;;18.75;9.43;;;;;;;;;;5131510;27;20095;-80
2023/06/14 00:26:47;;;;;;;17.15;6.28;;;;;;;;;;5113027;28;20039;-80
2023/06/14 00:29:14;;;;;;;11.13;6.00;;;;;;;;;;5131471;27;20055;-80
2023/06/14 00:31:40;;;;;;;9.30;5.68;;;;;;;;;;5112968;27;20100;-80
2023/06/14 00:34:06;;;;;;;8.30;5.68;;;;;;;;;;5131747;27;20051;-80
2023/06/14 00:36:33;;;;;;;10.45;5.15;;;;;;;;;;5131165;27;20111;-81
2023/06/14 00:38:59;;;;;;;11.38;6.65;;;;;;;;;;5131278;27;20557;-80
2023/06/14 00:41:26;;;;;;;10.20;6.28;;;;;;;;;;5112876;27;20089;-80
2023/06/14 00:43:55;;;;;;;12.02;6.35;;;;;;;;;;5131064;27;20030;-81
2023/06/14 00:46:22;;;;;;;10.60;7.00;;;;;;;;;;5132298;27;20104;-79
2023/06/14 00:48:48;;;;;;;10.68;6.50;;;;;;;;;;5134451;27;20035;-78
2023/06/14 00:51:14;;;;;;;16.17;6.75;;;;;;;;;;5116320;27;20053;-78
2023/06/14 00:53:46;;;;;;;8.02;6.15;;;;;;;;;;5134453;27;20031;-80
2023/06/14 00:56:13;;;;;;;9.70;6.10;;;;;;;;;;5116087;27;20455;-78
2023/06/14 00:58:39;;;;;;;11.07;6.60;;;;;;;;;;5099300;27;20069;-79
2023/06/14 01:01:05;;;;;;;11.35;6.50;;;;;;;;;;5134749;27;20489;-77
2023/06/14 01:03:34;;;;;;;9.13;6.22;;;;;;;;;;5135017;27;20023;-78
2023/06/14 01:06:06;;;;;;;15.55;6.22;;;;;;;;;;5121213;27;20060;-80
2023/06/14 01:08:35;;;;;;;8.68;6.75;;;;;;;;;;5127129;27;20027;-80
2023/06/14 01:11:04;;;;;;;13.32;6.28;;;;;;;;;;5113397;27;20047;-79
2023/06/14 01:13:34;;;;;;;12.32;6.70;;;;;;;;;;5142359;27;20035;-79
2023/06/14 01:16:00;;;;;;;15.87;6.80;;;;;;;;;;5134797;27;20079;-80
2023/06/14 01:18:29;;;;;;;11.18;7.13;;;;;;;;;;5115981;27;20148;-80
2023/06/14 01:20:55;;;;;;;8.60;6.38;;;;;;;;;;5115759;27;20038;-80
2023/06/14 01:23:25;;;;;;;12.60;6.32;;;;;;;;;;5116071;27;20027;-80
2023/06/14 01:25:55;;;;;;;7.25;6.55;;;;;;;;;;5133455;27;20575;-82
2023/06/14 01:28:21;;;;;;;13.73;7.15;;;;;;;;;;5115308;27;20031;-80
2023/06/14 01:30:51;;;;;;;13.50;6.55;;;;;;;;;;5115318;27;20100;-79
2023/06/14 01:33:18;;;;;;;8.43;6.80;;;;;;;;;;5134228;27;20389;-79
2023/06/14 01:35:45;;;;;;;12.55;6.30;;;;;;;;;;5098263;27;20039;-80
2023/06/14 01:38:11;;;;;;;11.55;7.30;;;;;;;;;;5115954;27;20038;-80
2023/06/14 01:40:37;;;;;;;11.65;6.97;;;;;;;;;;5098589;27;20031;-80
2023/06/14 01:43:03;;;;;;;10.52;7.45;;;;;;;;;;5115473;27;20027;-79
2023/06/14 01:45:29;;;;;;;16.58;7.70;;;;;;;;;;5117514;27;20296;-80
2023/06/14 01:47:56;;;;;;;17.65;7.90;;;;;;;;;;5139545;27;20035;-78
2023/06/14 01:50:22;;;;;;;17.15;9.10;;;;;;;;;;5141742;27;20066;-79
2023/06/14 01:52:48;;;;;;;18.80;8.07;;;;;;;;;;5101358;27;20103;-81
2023/06/14 01:55:17;;;;;;;13.27;8.10;;;;;;;;;;5133934;27;20035;-79
2023/06/14 01:57:43;;;;;;;15.85;8.27;;;;;;;;;;5114847;27;20035;-80
2023/06/14 02:00:12;;;;;;;8.93;7.47;;;;;;;;;;5097981;27;20031;-79
2023/06/14 02:02:41;;;;;;;15.52;7.95;;;;;;;;;;5116293;27;20050;-80
2023/06/14 02:05:08;;;;;;;9.38;7.70;;;;;;;;;;5115323;27;20031;-80
2023/06/14 02:07:35;;;;;;;14.65;8.05;;;;;;;;;;5133228;27;20146;-81
2023/06/14 02:10:01;;;;;;;11.02;7.60;;;;;;;;;;5097182;27;20528;-80
2023/06/14 02:12:30;;;;;;;13.50;7.88;;;;;;;;;;5132799;27;20080;-78
2023/06/14 02:14:57;;;;;;;8.70;7.18;;;;;;;;;;5102405;27;20070;-80
2023/06/14 02:17:24;;;;;;;12.65;7.70;;;;;;;;;;5135948;27;20035;-78
2023/06/14 02:19:50;;;;;;;10.73;8.30;;;;;;;;;;5134112;27;20401;-81
2023/06/14 02:22:17;;;;;;;14.23;8.52;;;;;;;;;;5134225;27;20034;-78
2023/06/14 02:24:43;;;;;;;15.02;8.38;;;;;;;;;;5134218;27;20099;-79
2023/06/14 02:27:10;;;;;;;13.05;8.63;;;;;;;;;;5115562;27;20031;-81
2023/06/14 02:29:36;;;;;;;19.38;9.07;;;;;;;;;;5115194;27;20035;-81
2023/06/14 02:32:07;;;;;;;18.30;8.70;;;;;;;;;;5114422;27;20046;-80
2023/06/14 02:34:33;;;;;;;18.15;10.52;;;;;;;;;;5114400;27;20023;-78
2023/06/14 02:37:00;;;;;;;16.80;8.30;;;;;;;;;;5113947;27;20114;-81
2023/06/14 02:39:26;;;;;;;11.55;7.68;;;;;;;;;;5132565;27;20573;-80
2023/06/14 02:41:52;;;;;;;15.98;7.47;;;;;;;;;;5114287;27;20039;-81
2023/06/14 02:44:21;;;;;;;12.88;7.60;;;;;;;;;;5133305;27;20023;-79
2023/06/14 02:46:47;;;;;;;13.32;7.82;;;;;;;;;;5114836;27;20088;-81
2023/06/14 02:49:13;;;;;;;14.10;8.20;;;;;;;;;;5115094;27;20023;-79
2023/06/14 02:51:39;;;;;;;10.30;7.95;;;;;;;;;;5114424;27;20050;-79
2023/06/14 02:54:05;;;;;;;14.73;9.40;;;;;;;;;;5133254;27;20035;-80
2023/06/14 02:56:31;;;;;;;16.65;7.88;;;;;;;;;;5132794;27;20114;-78
2023/06/14 02:58:58;;;;;;;18.65;8.43;;;;;;;;;;5133415;27;20404;-79
2023/06/14 03:01:33;;;;;;;13.63;8.65;;;;;;;;;;5115591;27;20508;-81
2023/06/14 03:04:03;;;;;;;24.55;12.38;;;;;;;;;;5115577;27;20031;-82
2023/06/14 03:06:33;;;;;;;22.30;12.73;;;;;;;;;;5099301;27;20031;-80
2023/06/14 03:09:00;;;;;;;14.02;8.77;;;;;;;;;;5114531;27;20043;-80
2023/06/14 03:11:27;;;;;;;15.32;9.27;;;;;;;;;;5114405;27;20042;-81
2023/06/14 03:13:53;;;;;;;24.20;12.68;;;;;;;;;;5097176;27;20035;-82
2023/06/14 03:16:21;;;;;;;17.13;10.63;;;;;;;;;;5113878;27;20038;-80
2023/06/14 03:18:48;;;;;;;23.33;10.90;;;;;;;;;;5098160;27;20497;-79
2023/06/14 03:21:16;;;;;;;25.17;10.55;;;;;;;;;;5096735;27;20504;-80
2023/06/14 03:23:43;;;;;;;23.85;12.10;;;;;;;;;;5096249;28;20577;-79
2023/06/14 03:26:12;;;;;;;19.45;11.52;;;;;;;;;;5113448;28;20035;-80
2023/06/14 03:28:39;;;;;;;22.10;11.93;;;;;;;;;;5114312;27;20031;-79
2023/06/14 03:31:05;;;;;;;24.60;12.93;;;;;;;;;;5113731;27;20111;-80
2023/06/14 03:33:32;;;;;;;24.10;12.95;;;;;;;;;;5132692;27;20055;-79
2023/06/14 03:35:59;;;;;;;25.95;14.32;;;;;;;;;;5129035;27;20090;-80
2023/06/14 03:38:26;;;;;;;19.08;13.00;;;;;;;;;;5106054;27;20023;-79
2023/06/14 03:40:53;;;;;;;18.73;12.50;;;;;;;;;;5118258;27;20050;-80
2023/06/14 03:43:19;;;;;;;15.85;12.10;;;;;;;;;;5113578;28;20030;-79
2023/06/14 03:45:45;;;;;;;24.23;12.80;;;;;;;;;;5131231;27;20513;-80
2023/06/14 03:48:11;;;;;;;23.88;12.48;;;;;;;;;;5131430;27;20443;-80
2023/06/14 03:50:42;;;;;;;17.23;12.38;;;;;;;;;;5113567;28;20092;-79
2023/06/14 03:53:08;;;;;;;17.02;12.10;;;;;;;;;;5130992;27;20087;-80
2023/06/14 03:55:37;;;;;;;25.42;12.23;;;;;;;;;;5131758;27;20035;-79
2023/06/14 03:58:04;;;;;;;18.98;11.70;;;;;;;;;;5130952;27;20126;-79
2023/06/14 04:00:31;;;;;;;22.27;11.18;;;;;;;;;;5112926;27;20533;-79
2023/06/14 04:02:58;;;;;;;29.48;11.50;;;;;;;;;;5131054;27;20458;-80
2023/06/14 04:05:26;;;;;;;27.00;11.52;;;;;;;;;;5112978;27;20043;-81
2023/06/14 04:07:55;;;;;;;26.80;13.07;;;;;;;;;;5112528;27;20163;-79
2023/06/14 04:10:21;;;;;;;31.48;13.30;;;;;;;;;;5109068;28;20055;-79
2023/06/14 04:12:48;;;;;;;33.58;12.93;;;;;;;;;;5109194;28;20562;-79
2023/06/14 04:15:14;;;;;;;46.65;14.40;;;;;;;;;;5075981;28;20382;-79
2023/06/14 04:17:40;;;;;;;28.92;12.73;;;;;;;;;;5110183;28;20685;-80
2023/06/14 04:20:09;;;;;;;26.10;12.20;;;;;;;;;;5115607;28;20055;-81
2023/06/14 04:22:36;;;;;;;25.63;11.15;;;;;;;;;;5124172;28;20035;-81
2023/06/14 04:25:05;;;;;;;22.35;11.23;;;;;;;;;;5124270;28;20058;-79
2023/06/14 04:27:35;;;;;;;31.38;12.82;;;;;;;;;;5115381;28;20024;-79
2023/06/14 04:30:02;;;;;;;29.10;13.20;;;;;;;;;;5114821;27;20048;-80
2023/06/14 04:32:38;;;;;;;19.35;11.98;;;;;;;;;;5113734;28;20043;-81
2023/06/14 04:35:08;;;;;;;19.58;10.25;;;;;;;;;;5063565;28;20097;-79
2023/06/14 04:37:41;;;;;;;21.27;9.90;;;;;;;;;;5112917;28;20040;-79
2023/06/14 04:40:08;;;;;;;23.60;10.23;;;;;;;;;;5096507;28;20039;-79
2023/06/14 04:42:36;;;;;;;25.25;10.73;;;;;;;;;;5112979;28;20090;-79
2023/06/14 04:45:06;;;;;;;34.10;11.80;;;;;;;;;;5112765;28;20032;-80
2023/06/14 04:47:34;;;;;;;21.35;11.15;;;;;;;;;;5112856;28;20063;-80
2023/06/14 04:50:00;;;;;;;21.42;10.90;;;;;;;;;;5095460;28;20031;-80
2023/06/14 04:52:31;;;;;;;25.85;10.45;;;;;;;;;;5112828;28;20124;-79
2023/06/14 04:54:58;;;;;;;15.02;10.13;;;;;;;;;;5112406;28;20035;-80
2023/06/14 04:57:25;;;;;;;23.83;9.10;;;;;;;;;;5112526;28;20043;-78
2023/06/14 04:59:55;;;;;;;15.07;8.77;;;;;;;;;;5096266;28;20039;-79
2023/06/14 05:02:23;;;;;;;9.52;7.15;;;;;;;;;;5114513;27;20040;-80
2023/06/14 05:04:49;;;;;;;8.98;7.60;;;;;;;;;;5113029;28;20134;-79
2023/06/14 05:07:16;;;;;;;7.95;6.50;;;;;;;;;;5112933;28;20172;-82
2023/06/14 05:09:42;;;;;;;19.40;7.30;;;;;;;;;;5113083;28;20079;-79
2023/06/14 05:12:09;;;;;;;13.13;7.20;;;;;;;;;;5113449;28;20089;-79
2023/06/14 05:14:35;;;;;;;10.65;7.28;;;;;;;;;;5114506;28;20039;-80
2023/06/14 05:17:03;;;;;;;12.88;6.90;;;;;;;;;;5112511;28;20092;-80
2023/06/14 05:19:29;;;;;;;24.73;6.78;;;;;;;;;;5114084;28;20478;-81
2023/06/14 05:21:55;;;;;;;15.15;6.80;;;;;;;;;;5116917;28;20066;-79
2023/06/14 05:24:22;;;;;;;12.80;6.95;;;;;;;;;;5122134;28;20081;-80
2023/06/14 05:26:48;;;;;;;9.13;6.80;;;;;;;;;;5126124;28;20035;-78
2023/06/14 05:29:15;;;;;;;11.18;6.55;;;;;;;;;;5117444;28;20035;-80
2023/06/14 05:31:41;;;;;;;10.90;7.28;;;;;;;;;;5112772;28;20075;-78
2023/06/14 05:34:07;;;;;;;13.95;6.72;;;;;;;;;;5113390;28;20401;-79
2023/06/14 05:36:33;;;;;;;11.32;5.90;;;;;;;;;;5078161;28;20027;-80
2023/06/14 05:38:59;;;;;;;12.95;4.78;;;;;;;;;;5111843;28;20122;-78
2023/06/14 05:41:26;;;;;;;10.85;4.55;;;;;;;;;;5112768;28;20126;-79
2023/06/14 05:43:52;;;;;;;6.30;5.03;;;;;;;;;;5113050;28;20042;-79
2023/06/14 05:46:22;;;;;;;5.72;4.55;;;;;;;;;;5112635;28;20036;-79
2023/06/14 05:48:48;;;;;;;5.97;4.05;;;;;;;;;;5112895;28;20046;-80
2023/06/14 05:51:18;;;;;;;14.77;4.32;;;;;;;;;;5111308;28;20428;-80
2023/06/14 05:53:46;;;;;;;5.70;4.10;;;;;;;;;;5112877;28;20486;-80
2023/06/14 05:56:12;;;;;;;6.00;4.18;;;;;;;;;;5112365;28;20541;-77
2023/06/14 05:58:38;;;;;;;6.93;4.30;;;;;;;;;;5112319;28;20027;-79
2023/06/14 06:01:04;;;;;;;10.45;3.85;;;;;;;;;;5111039;28;20046;-79
2023/06/14 06:03:30;;;;;;;8.73;4.78;;;;;;;;;;5094475;28;20023;-80
2023/06/14 06:05:56;;;;;;;6.55;3.45;;;;;;;;;;5112307;28;20305;-79
2023/06/14 06:08:22;;;;;;;3.78;3.42;;;;;;;;;;5112346;27;20023;-78
2023/06/14 06:10:48;;;;;;;3.95;3.33;;;;;;;;;;5110763;28;20054;-80
2023/06/14 06:13:14;;;;;;;5.60;3.28;;;;;;;;;;5111905;28;20035;-78
2023/06/14 06:15:40;;;;;;;5.20;3.63;;;;;;;;;;5112337;28;20059;-80
2023/06/14 06:18:06;;;;;;;3.90;3.33;;;;;;;;;;5111090;28;20039;-80
2023/06/14 06:20:33;;;;;;;4.63;2.70;;;;;;;;;;5077811;28;20419;-80
2023/06/14 06:22:59;;;;;;;5.50;2.72;;;;;;;;;;5111036;28;20035;-79
2023/06/14 06:25:25;;;;;;;2.95;2.65;;;;;;;;;;5112332;28;20046;-80
2023/06/14 06:27:52;;;;;;;2.83;2.63;;;;;;;;;;5112207;28;20031;-79
2023/06/14 06:30:19;;;;;;;6.25;2.88;;;;;;;;;;5111733;28;20027;-81
2023/06/14 06:32:45;;;;;;;5.45;2.88;;;;;;;;;;5113489;28;20041;-78
2023/06/14 06:35:12;;;;;;;3.17;2.88;;;;;;;;;;5113579;28;20038;-80
2023/06/14 06:37:39;;;;;;;3.13;2.67;;;;;;;;;;5111011;28;20111;-79
2023/06/14 06:40:06;;;;;;;3.60;3.25;;;;;;;;;;5111810;28;20059;-78
2023/06/14 06:42:32;;;;;;;3.38;3.08;;;;;;;;;;5110205;28;20541;-78
2023/06/14 06:45:02;;;;;;;11.20;4.18;;;;;;;;;;5094224;28;20069;-79
2023/06/14 06:47:31;;;;;;;5.70;3.55;;;;;;;;;;5110445;28;20119;-81
2023/06/14 06:49:57;;;;;;;3.40;3.10;;;;;;;;;;5110073;28;20054;-80
2023/06/14 06:52:23;;;;;;;3.47;3.28;;;;;;;;;;5109919;28;20421;-78
2023/06/14 06:54:54;;;;;;;3.65;3.03;;;;;;;;;;5110263;28;20032;-79
2023/06/14 06:57:22;;;;;;;3.72;3.28;;;;;;;;;;5110106;28;20066;-79
2023/06/14 06:59:49;;;;;;;4.53;3.30;;;;;;;;;;5111412;28;20520;-79
2023/06/14 07:02:16;;;;;;;3.80;3.10;;;;;;;;;;5092789;28;20389;-78
2023/06/14 07:04:42;;;;;;;3.63;3.28;;;;;;;;;;5111031;28;20032;-79
2023/06/14 07:07:09;;;;;;;7.53;3.20;;;;;;;;;;5092597;28;20112;-79
2023/06/14 07:09:35;;;;;;;8.35;3.15;;;;;;;;;;5121108;27;20073;-77
2023/06/14 07:12:02;;;;;;;2.67;2.53;;;;;;;;;;5113565;27;20278;-79
2023/06/14 07:14:30;;;;;;;8.38;3.38;;;;;;;;;;5132536;27;20038;-80
2023/06/14 07:16:56;;;;;;;6.68;3.05;;;;;;;;;;5118249;27;20042;-79
2023/06/14 07:19:22;;;;;;;6.00;2.80;;;;;;;;;;5114476;27;20050;-79
2023/06/14 07:21:48;;;;;;;5.93;2.65;;;;;;;;;;5114044;27;20087;-78
2023/06/14 07:24:15;;;;;;;8.68;2.75;;;;;;;;;;5113422;27;20035;-79
2023/06/14 07:26:41;;;;;;;3.40;2.95;;;;;;;;;;5101422;27;20050;-77
2023/06/14 07:29:07;;;;;;;5.60;3.00;;;;;;;;;;5136560;27;20349;-78
2023/06/14 07:31:33;;;;;;;4.15;2.88;;;;;;;;;;5139855;27;20078;-79
2023/06/14 07:33:59;;;;;;;4.95;2.90;;;;;;;;;;5131574;27;20576;-79
2023/06/14 07:36:25;;;;;;;2.88;2.65;;;;;;;;;;5131394;27;20146;-79
2023/06/14 07:38:52;;;;;;;2.95;2.70;;;;;;;;;;5131579;27;20026;-80
2023/06/14 07:41:18;;;;;;;3.45;2.60;;;;;;;;;;5131196;27;20080;-78
2023/06/14 07:43:44;;;;;;;4.93;2.97;;;;;;;;;;5131353;27;20047;-78
2023/06/14 07:46:10;;;;;;;4.63;2.88;;;;;;;;;;5112920;28;20107;-79
2023/06/14 07:48:36;;;;;;;4.38;2.75;;;;;;;;;;5113887;27;20034;-79
2023/06/14 07:51:02;;;;;;;3.03;2.83;;;;;;;;;;5114411;27;20513;-77
2023/06/14 07:53:28;;;;;;;3.17;2.67;;;;;;;;;;5135360;27;20406;-78
2023/06/14 07:55:55;;;;;;;4.35;3.45;;;;;;;;;;5137544;27;20039;-80
2023/06/14 07:58:20;;;;;;;3.40;3.05;;;;;;;;;;5140765;27;20560;-78
2023/06/14 08:00:47;;;;;;;5.93;2.80;;;;;;;;;;5123348;27;20070;-78
2023/06/14 08:03:14;;;;;;;4.90;2.38;;;;;;;;;;5140010;27;20038;-78
2023/06/14 08:05:40;;;;;;;3.30;3.00;;;;;;;;;;5139229;27;20031;-79
2023/06/14 08:08:06;;;;;;;6.90;3.92;;;;;;;;;;5139243;27;20039;-79
2023/06/14 08:10:32;;;;;;;6.00;2.55;;;;;;;;;;5139921;27;20292;-80
2023/06/14 08:12:58;;;;;;;5.47;2.88;;;;;;;;;;5141178;27;20065;-78
2023/06/14 08:15:25;;;;;;;2.90;2.50;;;;;;;;;;5123497;27;20035;-80
2023/06/14 08:17:51;;;;;;;5.63;2.90;;;;;;;;;;5118878;27;20527;-79
2023/06/14 08:20:17;;;;;;;4.45;3.00;;;;;;;;;;5138319;27;20088;-79
2023/06/14 08:22:43;;;;;;;5.57;3.15;;;;;;;;;;5135591;27;20039;-78
2023/06/14 08:25:12;;;;;;;4.75;3.22;;;;;;;;;;5135408;27;20034;-78
2023/06/14 08:27:38;;;;;;;3.60;3.10;;;;;;;;;;5117153;27;20035;-81
2023/06/14 08:30:05;;;;;;;4.63;3.00;;;;;;;;;;5135339;27;20027;-80
2023/06/14 08:32:32;;;;;;;3.15;2.80;;;;;;;;;;5116731;27;20042;-79
2023/06/14 08:34:58;;;;;;;5.90;3.08;;;;;;;;;;5135246;27;20027;-81
2023/06/14 08:37:27;;;;;;;6.03;2.95;;;;;;;;;;5116254;27;20039;-79
2023/06/14 08:39:53;;;;;;;3.17;2.97;;;;;;;;;;5116621;27;20382;-80
2023/06/14 08:42:19;;;;;;;6.93;2.90;;;;;;;;;;5134545;27;20039;-79
2023/06/14 08:44:45;;;;;;;3.60;3.28;;;;;;;;;;5116443;27;20042;-79
2023/06/14 08:47:11;;;;;;;6.25;3.10;;;;;;;;;;5136024;27;20039;-77
2023/06/14 08:49:37;;;;;;;5.13;2.78;;;;;;;;;;5135011;27;20068;-80
2023/06/14 08:52:05;;;;;;;3.28;2.90;;;;;;;;;;5134937;27;20070;-80
2023/06/14 08:54:34;;;;;;;3.35;3.05;;;;;;;;;;5103642;27;20504;-79
2023/06/14 08:57:00;;;;;;;3.47;3.00;;;;;;;;;;5137315;27;20038;-80
2023/06/14 08:59:26;;;;;;;9.23;3.25;;;;;;;;;;5100961;27;20027;-79
2023/06/14 09:01:54;;;;;;;3.85;3.17;;;;;;;;;;5141366;27;20041;-79
2023/06/14 09:04:21;;;;;;;3.28;2.97;;;;;;;;;;5146761;27;20031;-78
2023/06/14 09:06:52;;;;;;;7.45;3.10;;;;;;;;;;5138033;27;20042;-80
2023/06/14 09:09:20;;;;;;;5.13;3.13;;;;;;;;;;5136499;27;20058;-79
2023/06/14 09:11:46;;;;;;;4.45;3.00;;;;;;;;;;5136513;27;20135;-78
2023/06/14 09:14:12;;;;;;;3.50;3.20;;;;;;;;;;5135389;27;20031;-79
2023/06/14 09:16:38;;;;;;;3.35;3.10;;;;;;;;;;5136844;27;20039;-79
2023/06/14 09:19:04;;;;;;;3.78;3.05;;;;;;;;;;5118457;27;20240;-77
2023/06/14 09:21:33;;;;;;;3.92;3.53;;;;;;;;;;5136552;27;20043;-79
2023/06/14 09:24:00;;;;;;;3.67;3.38;;;;;;;;;;5135985;27;20034;-79
2023/06/14 09:26:27;;;;;;;4.55;3.25;;;;;;;;;;5117270;27;20031;-79
2023/06/14 09:28:55;;;;;;;4.10;3.70;;;;;;;;;;5120564;27;20035;-79
2023/06/14 09:31:22;;;;;;;5.50;3.58;;;;;;;;;;5138024;27;20386;-78
2023/06/14 09:33:48;;;;;;;4.05;3.65;;;;;;;;;;5121558;27;20061;-79
2023/06/14 09:36:16;;;;;;;3.75;3.35;;;;;;;;;;5121492;27;20035;-79
2023/06/14 09:38:42;;;;;;;4.00;3.50;;;;;;;;;;5103210;27;20039;-78
2023/06/14 09:41:07;;;;;;;6.18;2.95;;;;;;;;;;5105159;27;20071;-79
2023/06/14 09:43:33;;;;;;;3.38;3.08;;;;;;;;;;5140894;27;20039;-78
2023/06/14 09:46:00;;;;;;;3.20;3.00;;;;;;;;;;5123964;27;20038;-79
2023/06/14 09:48:26;;;;;;;6.88;3.67;;;;;;;;;;5121835;27;20035;-78
2023/06/14 09:50:52;;;;;;;5.03;3.60;;;;;;;;;;5140916;27;20036;-79
2023/06/14 09:53:20;;;;;;;3.88;3.58;;;;;;;;;;5141012;27;20098;-79
2023/06/14 09:55:46;;;;;;;5.50;3.63;;;;;;;;;;5137066;27;20039;-80
2023/06/14 09:58:12;;;;;;;5.05;3.70;;;;;;;;;;5115719;27;20087;-78
2023/06/14 10:00:39;;;;;;;5.35;3.58;;;;;;;;;;5134087;27;20564;-77
2023/06/14 10:03:14;;;;;;;5.05;3.50;;;;;;;;;;5133639;27;20034;-78
2023/06/14 10:05:44;;;;;;;4.53;3.17;;;;;;;;;;5115172;27;20108;-79
2023/06/14 10:08:11;;;;;;;4.03;3.67;;;;;;;;;;5132975;27;20505;-78
2023/06/14 10:10:38;;;;;;;5.82;3.53;;;;;;;;;;5114250;27;20087;-78
2023/06/14 10:13:05;;;;;;;4.03;3.67;;;;;;;;;;5114714;27;20045;-79
2023/06/14 10:15:32;;;;;;;6.05;3.13;;;;;;;;;;5133217;27;20489;-78
2023/06/14 10:18:12;;;;;;;3.67;3.30;;;;;;;;;;5115108;27;20042;-78
2023/06/14 10:21:11;;;;;;;9.07;4.10;;;;;;;;;;5114760;27;20055;-79
2023/06/14 10:23:42;;;;;;;5.78;3.75;;;;;;;;;;5077249;27;20435;-80
2023/06/14 10:26:08;;;;;;;5.30;3.30;;;;;;;;;;5119949;27;20054;-79
2023/06/14 10:28:36;;;;;;;3.60;3.40;;;;;;;;;;5141255;27;20027;-79
2023/06/14 10:31:07;;;;;;;5.40;3.83;;;;;;;;;;5117971;27;20035;-80
2023/06/14 10:33:33;;;;;;;3.67;3.38;;;;;;;;;;5114062;27;20043;-79
2023/06/14 10:36:09;;;;;;;4.13;3.80;;;;;;;;;;5132558;27;20031;-78
2023/06/14 10:38:38;;;;;;;3.65;3.33;;;;;;;;;;5132676;27;20038;-79
2023/06/14 10:41:05;;;;;;;3.45;3.15;;;;;;;;;;5132786;27;20501;-78
2023/06/14 10:43:31;;;;;;;4.13;3.72;;;;;;;;;;5118494;27;20062;-79
2023/06/14 10:46:16;;;;;;;4.68;3.28;;;;;;;;;;5137497;27;20053;-78
2023/06/14 10:48:44;;;;;;;3.60;3.30;;;;;;;;;;5133769;27;20125;-78
2023/06/14 10:51:22;;;;;;;4.32;3.95;;;;;;;;;;5149383;27;20038;-79
2023/06/14 10:53:48;;;;;;;4.57;3.40;;;;;;;;;;5134580;27;20527;-79
2023/06/14 10:56:26;;;;;;;3.28;2.97;;;;;;;;;;5115350;27;20038;-77
2023/06/14 10:58:52;;;;;;;4.40;3.20;;;;;;;;;;5116567;27;20042;-80
2023/06/14 11:01:20;;;;;;;3.03;2.83;;;;;;;;;;5114104;27;20038;-79
2023/06/14 11:03:51;;;;;;;4.75;3.30;;;;;;;;;;5113733;27;20028;-78
2023/06/14 11:06:17;;;;;;;4.28;3.00;;;;;;;;;;5131512;27;20034;-79
2023/06/14 11:08:43;;;;;;;7.93;3.30;;;;;;;;;;5131524;27;20067;-78
2023/06/14 11:11:10;;;;;;;3.08;2.83;;;;;;;;;;5131569;27;20043;-78
2023/06/14 11:13:39;;;;;;;5.10;2.95;;;;;;;;;;5131372;27;20443;-78
2023/06/14 11:16:13;;;;;;;3.33;3.03;;;;;;;;;;5131821;27;20038;-80
2023/06/14 11:18:39;;;;;;;3.47;3.10;;;;;;;;;;5113217;27;20046;-79
2023/06/14 11:21:05;;;;;;;5.47;3.30;;;;;;;;;;5113292;27;20417;-79
2023/06/14 11:23:31;;;;;;;3.38;3.13;;;;;;;;;;5112664;27;20031;-79
2023/06/14 11:25:58;;;;;;;7.75;3.20;;;;;;;;;;5131403;27;20039;-77
2023/06/14 11:28:23;;;;;;;7.15;3.13;;;;;;;;;;5130996;27;20031;-79
2023/06/14 11:30:59;;;;;;;3.58;3.25;;;;;;;;;;5130893;27;20115;-80
2023/06/14 11:33:25;;;;;;;3.22;1.90;;;;;;;;;;5112783;27;20412;-80
2023/06/14 11:35:51;;;;;;;3.13;2.78;;;;;;;;;;5113463;27;20424;-79
2023/06/14 11:38:17;;;;;;;6.90;3.72;;;;;;;;;;5131267;27;20084;-79
2023/06/14 11:40:43;;;;;;;3.70;3.28;;;;;;;;;;5113216;27;20042;-79
2023/06/14 11:43:09;;;;;;;4.90;3.30;;;;;;;;;;5131286;27;20045;-79
2023/06/14 11:45:36;;;;;;;3.88;3.25;;;;;;;;;;5112924;28;20031;-78
2023/06/14 11:48:02;;;;;;;3.20;2.90;;;;;;;;;;5131316;27;20034;-79
2023/06/14 11:50:29;;;;;;;3.00;2.80;;;;;;;;;;5130891;27;20186;-80
2023/06/14 11:52:55;;;;;;;7.32;2.90;;;;;;;;;;5131180;27;20061;-78
2023/06/14 11:55:22;;;;;;;4.57;3.30;;;;;;;;;;5131119;27;20043;-79
2023/06/14 11:57:48;;;;;;;3.20;3.00;;;;;;;;;;5096099;27;20039;-80
2023/06/14 12:00:15;;;;;;;11.98;3.33;;;;;;;;;;5131247;27;20027;-79
2023/06/14 12:02:41;;;;;;;3.97;3.20;;;;;;;;;;5079043;27;20035;-80
2023/06/14 12:05:09;;;;;;;3.40;2.70;;;;;;;;;;5131230;27;20027;-79
2023/06/14 12:07:37;;;;;;;8.25;3.25;;;;;;;;;;5112713;28;20039;-78
2023/06/14 12:10:07;;;;;;;3.53;3.20;;;;;;;;;;5112454;27;20047;-80
2023/06/14 12:12:33;;;;;;;;;;;;;;;;;;5112661;27;20103;-78
2023/06/14 12:14:59;;;;;;;3.65;3.13;;;;;;;;;;5112698;28;19956;-79
2023/06/14 12:17:27;;;;;;;5.50;3.47;;;;;;;;;;5112107;27;20023;-79
2023/06/14 12:19:53;;;;;;;3.10;2.88;;;;;;;;;;5130902;27;20082;-79
2023/06/14 12:22:19;;;;;;;3.60;3.20;;;;;;;;;;5095221;27;20835;-79
2023/06/14 12:24:45;;;;;;;7.05;3.20;;;;;;;;;;5130540;27;20031;-79
2023/06/14 12:27:15;;;;;;;3.63;2.92;;;;;;;;;;5112557;27;20054;-79
2023/06/14 12:29:43;;;;;;;3.67;3.10;;;;;;;;;;5130675;27;20447;-79
2023/06/14 12:32:09;;;;;;;3.78;3.17;;;;;;;;;;5112743;28;20042;-79
2023/06/14 12:34:35;;;;;;;10.98;3.30;;;;;;;;;;5130830;27;20063;-79
2023/06/14 12:37:03;;;;;;;4.35;2.90;;;;;;;;;;5126090;27;20035;-78
2023/06/14 12:39:31;;;;;;;3.65;2.97;;;;;;;;;;5145662;27;20031;-79
2023/06/14 12:41:57;;;;;;;5.97;3.08;;;;;;;;;;5116508;27;20035;-79
2023/06/14 12:44:23;;;;;;;3.95;3.00;;;;;;;;;;5134467;27;20031;-79
2023/06/14 12:46:51;;;;;;;5.22;3.40;;;;;;;;;;5099510;27;20406;-79
2023/06/14 12:49:17;;;;;;;5.18;3.50;;;;;;;;;;5082290;27;20028;-79
2023/06/14 12:51:43;;;;;;;3.45;3.15;;;;;;;;;;5134431;27;20043;-79
2023/06/14 12:54:09;;;;;;;3.30;3.10;;;;;;;;;;5115811;27;20027;-80
2023/06/14 12:56:35;;;;;;;4.45;3.20;;;;;;;;;;5115754;27;20523;-80
2023/06/14 12:59:01;;;;;;;4.80;3.08;;;;;;;;;;5115863;27;20591;-79
2023/06/14 13:01:27;;;;;;;7.47;3.20;;;;;;;;;;5133787;27;20037;-78
2023/06/14 13:03:53;;;;;;;4.07;2.95;;;;;;;;;;5134068;27;20034;-78
2023/06/14 13:06:22;;;;;;;5.45;2.92;;;;;;;;;;5134207;27;20031;-78
2023/06/14 13:08:50;;;;;;;5.22;3.50;;;;;;;;;;5115819;27;20063;-79
2023/06/14 13:11:16;;;;;;;3.55;3.25;;;;;;;;;;5134144;27;20078;-79
2023/06/14 13:13:41;;;;;;;6.00;3.17;;;;;;;;;;5115293;27;20091;-79
2023/06/14 13:16:08;;;;;;;4.70;3.38;;;;;;;;;;5115816;27;20035;-79
2023/06/14 13:18:34;;;;;;;10.18;3.40;;;;;;;;;;5098800;27;20038;-79
2023/06/14 13:21:01;;;;;;;3.20;3.00;;;;;;;;;;5100082;27;20035;-77
2023/06/14 13:23:27;;;;;;;5.88;2.70;;;;;;;;;;5124946;27;20035;-80
2023/06/14 13:25:53;;;;;;;4.88;3.40;;;;;;;;;;5126064;27;20540;-79
2023/06/14 13:28:20;;;;;;;3.75;3.15;;;;;;;;;;5101337;27;20493;-79
2023/06/14 13:30:47;;;;;;;7.80;3.05;;;;;;;;;;5134210;27;20035;-80
2023/06/14 13:33:13;;;;;;;3.30;3.00;;;;;;;;;;5115691;27;20058;-81
2023/06/14 13:35:40;;;;;;;3.00;2.80;;;;;;;;;;5114966;27;20466;-80
2023/06/14 13:38:05;;;;;;;4.60;3.08;;;;;;;;;;5133646;27;20162;-79
2023/06/14 13:40:32;;;;;;;3.40;3.10;;;;;;;;;;5133030;27;20120;-80
2023/06/14 13:42:58;;;;;;;3.20;2.95;;;;;;;;;;5133360;27;20035;-80
2023/06/14 13:45:24;;;;;;;3.15;2.90;;;;;;;;;;5133345;27;20394;-81
2023/06/14 13:47:50;;;;;;;9.75;3.05;;;;;;;;;;5133273;27;20079;-80
2023/06/14 13:50:16;;;;;;;6.35;3.10;;;;;;;;;;5097775;27;20062;-79
2023/06/14 13:52:42;;;;;;;8.93;3.25;;;;;;;;;;5132048;27;20046;-80
2023/06/14 13:55:09;;;;;;;5.18;3.10;;;;;;;;;;5133866;27;20027;-81
2023/06/14 13:57:35;;;;;;;3.30;3.00;;;;;;;;;;5134287;27;20095;-79
2023/06/14 14:00:03;;;;;;;8.88;2.97;;;;;;;;;;5114647;27;20039;-79
2023/06/14 14:02:39;;;;;;;3.10;2.88;;;;;;;;;;5114605;27;20034;-80
2023/06/14 14:05:06;;;;;;;4.25;2.25;;;;;;;;;;5133384;27;20455;-81
2023/06/14 14:07:32;;;;;;;5.32;2.97;;;;;;;;;;5098268;27;20039;-80
2023/06/14 14:09:58;;;;;;;6.50;3.10;;;;;;;;;;5115543;27;20051;-82
2023/06/14 14:12:25;;;;;;;4.30;3.00;;;;;;;;;;5134142;27;20589;-81
2023/06/14 14:14:51;;;;;;;4.78;3.00;;;;;;;;;;5133207;27;20035;-80
2023/06/14 14:17:17;;;;;;;4.82;2.90;;;;;;;;;;5115048;27;20031;-80
2023/06/14 14:19:43;;;;;;;7.05;2.90;;;;;;;;;;5115651;27;20258;-79
2023/06/14 14:22:09;;;;;;;4.18;3.00;;;;;;;;;;5101142;27;20511;-79
2023/06/14 14:24:36;;;;;;;3.13;2.92;;;;;;;;;;5149565;27;20042;-79
2023/06/14 14:27:02;;;;;;;8.45;2.80;;;;;;;;;;5119202;27;20031;-78
2023/06/14 14:29:31;;;;;;;4.13;3.00;;;;;;;;;;5114256;27;20081;-79
2023/06/14 14:31:57;;;;;;;3.08;2.78;;;;;;;;;;5132463;27;20070;-79
2023/06/14 14:34:24;;;;;;;7.72;2.85;;;;;;;;;;5113211;27;20060;-78
2023/06/14 14:36:50;;;;;;;5.03;3.03;;;;;;;;;;5113371;27;20035;-78
2023/06/14 14:39:16;;;;;;;4.88;2.83;;;;;;;;;;5114100;27;20031;-78